Edmonton Namao, Alberta

4:35 PM MDT on June 03, 2015 (GMT -0600)
Edmonton Namao | | Change Station
CLOSE
Current Station
Airport
Location: Edmonton Namao,
Elevation: 2257 ft
Nearby Weather Stations

Elev 2257 ft 53.67 °N, 113.47 °W | Updated 35 minutes ago

Scattered Clouds
Scattered Clouds
72 °F
Feels Like 72 °F
N
17
Wind Variable Wind from SE

Today
High -- | Low -- °F
--% Chance of Precip.
Yesterday
High -- | Low -- °F
Precip. -- in
5:08 AM 9:55 PM
Full, 98% visible
Pressure 29.92 in
Visibility 15.0 miles
Clouds Few 5000 ft
Scattered Clouds 25000 ft
Dew Point 37 °F
Humidity 29%
Rainfall 0.00 in
Snow Depth Not available.
UV 6 out of 12
Pollen Not available.
Air Quality Not available.
Flu Activity Not available.
METAR CYED 032200Z 14015KT 15SM FEW050 SCT250 22/03 A2991 RMK SC2CI1 DA3714FT SLP131

More Conditions Fewer Conditions

Pressure 29.92 in
Visibility 15.0 miles
Clouds Few 5000 ft
Scattered Clouds 25000 ft
Dew Point 37 °F
Humidity 29%
Rainfall 0.00 in
Snow Depth Not available.
UV 6 out of 12
Pollen Not available.
Air Quality Not available.
Flu Activity Not available.
METAR CYED 032200Z 14015KT 15SM FEW050 SCT250 22/03 A2991 RMK SC2CI1 DA3714FT SLP131

More Conditions Fewer Conditions

10-Day Weather Forecast

×

Almanac

Astronomy

Jun. 03, 2015 Rise Set
Actual Time
Civil Twilight
Nautical Twilight
Astronomical Twilight
Moon
Length of Visible Light
Length of Day
Tomorrow will be .
, % of the Moon is Illuminated

Today's Extremes

Country Highs Country Lows

Community

WunderPhotos

Upload Photos

1,826,295 photos uploaded!

WunderBlogs® & News

Nearby

Air Quality

  Air Quality AQ Index Pollutant
Not available.

Snow Depth

Station Depth Elevation

Earthquake Activity

City Distance Mag. Time & Date
Minimum magnitude displayed is 2.5.

Coastal Water Temperatures

Place Temperature

Stations

Nearby Weather Stations

Station Location Temp. Windchill Dew Point Humidity Wind Precip. Elev Updated Type